createdAt,value
2022-12-11T00:00:22.757Z,1005.43
2022-12-11T00:01:22.758Z,1005.43
2022-12-11T00:02:22.779Z,1005.42
2022-12-11T00:03:22.880Z,1005.43
2022-12-11T00:04:22.777Z,1005.44
2022-12-11T00:05:22.780Z,1005.41
2022-12-11T00:06:22.786Z,1005.41
2022-12-11T00:07:22.794Z,1005.39
2022-12-11T00:08:22.825Z,1005.37
2022-12-11T00:09:22.801Z,1005.35
2022-12-11T00:10:22.808Z,1005.34
2022-12-11T00:11:22.816Z,1005.28
2022-12-11T00:12:22.818Z,1005.23
2022-12-11T00:13:22.825Z,1005.27
2022-12-11T00:14:22.830Z,1005.30
2022-12-11T00:15:22.835Z,1005.26
2022-12-11T00:16:26.915Z,1005.24
2022-12-11T00:17:22.846Z,1005.27
2022-12-11T00:18:22.861Z,1005.26
2022-12-11T00:19:22.856Z,1005.24
2022-12-11T00:20:22.862Z,1005.26
2022-12-11T00:21:22.866Z,1005.28
2022-12-11T00:22:22.872Z,1005.28
2022-12-11T00:23:22.878Z,1005.25
2022-12-11T00:24:22.885Z,1005.26
2022-12-11T00:25:22.896Z,1005.21
2022-12-11T00:26:22.896Z,1005.24
2022-12-11T00:27:22.901Z,1005.24
2022-12-11T00:28:22.904Z,1005.20
2022-12-11T00:29:22.912Z,1005.20
2022-12-11T00:30:22.919Z,1005.17
2022-12-11T00:31:22.944Z,1005.14
2022-12-11T00:32:22.928Z,1005.19
2022-12-11T00:33:22.939Z,1005.17
2022-12-11T00:34:22.940Z,1005.13
2022-12-11T00:35:22.945Z,1005.13
2022-12-11T00:36:22.951Z,1005.21
2022-12-11T00:37:23.002Z,1005.20
2022-12-11T00:38:22.964Z,1005.20
2022-12-11T00:39:22.971Z,1005.21
2022-12-11T00:40:22.973Z,1005.22
2022-12-11T00:41:22.984Z,1005.19
2022-12-11T00:42:22.983Z,1005.16
2022-12-11T00:43:22.989Z,1005.16
2022-12-11T00:44:22.997Z,1005.14
2022-12-11T00:45:23.002Z,1005.18
2022-12-11T00:46:23.061Z,1005.18
2022-12-11T00:47:23.011Z,1005.13
2022-12-11T00:48:23.016Z,1005.17
2022-12-11T00:49:23.023Z,1005.19
2022-12-11T00:50:23.033Z,1005.24
2022-12-11T00:51:23.033Z,1005.18
2022-12-11T00:52:23.039Z,1005.22
2022-12-11T00:53:23.045Z,1005.23
2022-12-11T00:54:23.051Z,1005.21
2022-12-11T00:55:23.059Z,1005.25
2022-12-11T00:56:23.064Z,1005.26
2022-12-11T00:57:23.069Z,1005.26
2022-12-11T00:58:23.072Z,1005.22
2022-12-11T00:59:23.078Z,1005.20
2022-12-11T01:00:23.084Z,1005.18
2022-12-11T01:01:23.124Z,1005.17
2022-12-11T01:02:23.150Z,1005.15
2022-12-11T01:03:23.107Z,1005.13
2022-12-11T01:04:23.108Z,1005.15
2022-12-11T01:05:23.114Z,1005.16
2022-12-11T01:06:23.121Z,1005.16
2022-12-11T01:07:23.124Z,1005.13
2022-12-11T01:08:23.166Z,1005.13
2022-12-11T01:09:23.133Z,1005.19
2022-12-11T01:10:23.169Z,1005.18
2022-12-11T01:11:23.148Z,1005.21
2022-12-11T01:12:23.149Z,1005.20
2022-12-11T01:13:23.155Z,1005.20
2022-12-11T01:14:23.163Z,1005.22
2022-12-11T01:15:23.168Z,1005.25
2022-12-11T01:16:23.208Z,1005.26
2022-12-11T01:17:23.177Z,1005.21
2022-12-11T01:18:23.184Z,1005.24
2022-12-11T01:19:23.190Z,1005.21
2022-12-11T01:20:23.194Z,1005.21
2022-12-11T01:21:23.199Z,1005.25
2022-12-11T01:22:23.206Z,1005.27
2022-12-11T01:23:23.211Z,1005.26
2022-12-11T01:24:23.216Z,1005.27
2022-12-11T01:25:23.223Z,1005.26
2022-12-11T01:26:23.230Z,1005.31
2022-12-11T01:27:23.233Z,1005.30
2022-12-11T01:28:23.240Z,1005.33
2022-12-11T01:29:23.243Z,1005.30
2022-12-11T01:30:23.248Z,1005.30
2022-12-11T01:31:23.256Z,1005.30
2022-12-11T01:32:23.263Z,1005.31
2022-12-11T01:33:23.266Z,1005.31
2022-12-11T01:34:23.272Z,1005.27
2022-12-11T01:35:23.281Z,1005.32
2022-12-11T01:36:23.289Z,1005.32
2022-12-11T01:37:23.288Z,1005.28
2022-12-11T01:38:23.298Z,1005.30
2022-12-11T01:39:23.350Z,1005.24
2022-12-11T01:40:23.311Z,1005.21
2022-12-11T01:41:23.312Z,1005.25
2022-12-11T01:42:23.316Z,1005.24
2022-12-11T01:43:23.323Z,1005.28
2022-12-11T01:44:23.326Z,1005.25
2022-12-11T01:45:26.637Z,1005.32
2022-12-11T01:46:23.363Z,1005.32
2022-12-11T01:47:23.344Z,1005.34
2022-12-11T01:48:23.349Z,1005.31
2022-12-11T01:49:23.354Z,1005.31
2022-12-11T01:50:23.366Z,1005.28
2022-12-11T01:51:23.367Z,1005.27
2022-12-11T01:52:23.373Z,1005.32
2022-12-11T01:53:23.376Z,1005.34
2022-12-11T01:54:23.384Z,1005.31
2022-12-11T01:55:23.393Z,1005.32
2022-12-11T01:56:23.395Z,1005.37
2022-12-11T01:57:23.398Z,1005.35
2022-12-11T01:58:23.409Z,1005.32
2022-12-11T01:59:23.412Z,1005.30
2022-12-11T02:00:23.415Z,1005.31
2022-12-11T02:01:23.451Z,1005.31
2022-12-11T02:02:23.464Z,1005.32
2022-12-11T02:03:23.434Z,1005.31
2022-12-11T02:04:23.436Z,1005.31
2022-12-11T02:05:23.443Z,1005.25
2022-12-11T02:06:23.453Z,1005.28
2022-12-11T02:07:23.456Z,1005.28
2022-12-11T02:08:23.518Z,1005.19
2022-12-11T02:09:23.466Z,1005.21
2022-12-11T02:10:23.472Z,1005.25
2022-12-11T02:11:23.478Z,1005.30
2022-12-11T02:12:23.485Z,1005.29
2022-12-11T02:13:23.489Z,1005.33
2022-12-11T02:14:23.496Z,1005.33
2022-12-11T02:15:23.500Z,1005.35
2022-12-11T02:16:23.550Z,1005.31
2022-12-11T02:17:23.516Z,1005.34
2022-12-11T02:18:23.519Z,1005.37
2022-12-11T02:19:23.522Z,1005.38
2022-12-11T02:20:23.528Z,1005.45
2022-12-11T02:21:23.536Z,1005.45
2022-12-11T02:22:23.541Z,1005.45
2022-12-11T02:23:23.546Z,1005.41
2022-12-11T02:24:23.552Z,1005.41
2022-12-11T02:25:23.557Z,1005.41
2022-12-11T02:26:23.565Z,1005.42
2022-12-11T02:27:23.566Z,1005.40
2022-12-11T02:28:23.575Z,1005.38
2022-12-11T02:29:23.581Z,1005.36
2022-12-11T02:30:23.587Z,1005.32
2022-12-11T02:31:23.612Z,1005.32
2022-12-11T02:32:23.596Z,1005.35
2022-12-11T02:33:23.603Z,1005.35
2022-12-11T02:34:23.606Z,1005.32
2022-12-11T02:35:23.612Z,1005.34
2022-12-11T02:36:23.623Z,1005.33
2022-12-11T02:37:23.624Z,1005.34
2022-12-11T02:38:23.630Z,1005.36
2022-12-11T02:39:23.635Z,1005.33
2022-12-11T02:40:23.656Z,1005.33
2022-12-11T02:41:23.648Z,1005.31
2022-12-11T02:42:23.652Z,1005.26
2022-12-11T02:43:23.657Z,1005.26
2022-12-11T02:44:23.664Z,1005.28
2022-12-11T02:45:23.668Z,1005.25
2022-12-11T02:46:23.683Z,1005.22
2022-12-11T02:47:23.678Z,1005.30
2022-12-11T02:48:23.684Z,1005.31
2022-12-11T02:49:23.690Z,1005.32
2022-12-11T02:50:23.697Z,1005.35
2022-12-11T02:51:23.702Z,1005.35
2022-12-11T02:52:23.706Z,1005.33
2022-12-11T02:53:23.715Z,1005.25
2022-12-11T02:54:23.724Z,1005.25
2022-12-11T02:55:23.725Z,1005.24
2022-12-11T02:56:23.729Z,1005.20
2022-12-11T02:57:23.734Z,1005.17
2022-12-11T02:58:23.743Z,1005.19
2022-12-11T02:59:23.746Z,1005.15
2022-12-11T03:00:23.750Z,1005.14
2022-12-11T03:01:23.800Z,1005.14
2022-12-11T03:02:23.830Z,1005.15
2022-12-11T03:03:23.773Z,1005.16
2022-12-11T03:04:23.775Z,1005.15
2022-12-11T03:05:23.778Z,1005.15
2022-12-11T03:06:23.786Z,1005.17
2022-12-11T03:07:23.796Z,1005.18
2022-12-11T03:08:23.831Z,1005.13
2022-12-11T03:09:23.800Z,1005.15
2022-12-11T03:10:23.808Z,1005.16
2022-12-11T03:11:23.816Z,1005.14
2022-12-11T03:12:23.819Z,1005.17
2022-12-11T03:13:23.823Z,1005.16
2022-12-11T03:14:23.829Z,1005.20
2022-12-11T03:15:23.837Z,1005.19
2022-12-11T03:16:23.870Z,1005.29
2022-12-11T03:17:23.846Z,1005.26
2022-12-11T03:18:23.852Z,1005.28
2022-12-11T03:19:23.856Z,1005.29
2022-12-11T03:20:23.866Z,1005.25
2022-12-11T03:21:23.869Z,1005.24
2022-12-11T03:22:23.882Z,1005.25
2022-12-11T03:23:23.880Z,1005.29
2022-12-11T03:24:23.886Z,1005.31
2022-12-11T03:25:23.895Z,1005.30
2022-12-11T03:26:23.898Z,1005.32
2022-12-11T03:27:23.902Z,1005.30
2022-12-11T03:28:23.908Z,1005.30
2022-12-11T03:29:23.914Z,1005.33
2022-12-11T03:30:23.947Z,1005.31
2022-12-11T03:31:23.931Z,1005.29
2022-12-11T03:32:23.930Z,1005.32
2022-12-11T03:33:23.937Z,1005.33
2022-12-11T03:34:23.943Z,1005.29
2022-12-11T03:35:23.949Z,1005.30
2022-12-11T03:36:23.953Z,1005.30
2022-12-11T03:37:23.958Z,1005.32
2022-12-11T03:38:23.964Z,1005.26
2022-12-11T03:39:24.020Z,1005.31
2022-12-11T03:40:23.977Z,1005.30
2022-12-11T03:41:23.980Z,1005.32
2022-12-11T03:42:23.988Z,1005.34
2022-12-11T03:43:23.991Z,1005.30
2022-12-11T03:44:23.997Z,1005.30
2022-12-11T03:45:24.006Z,1005.29
2022-12-11T03:46:24.059Z,1005.33
2022-12-11T03:47:24.018Z,1005.29
2022-12-11T03:48:24.018Z,1005.28
2022-12-11T03:49:24.024Z,1005.27
2022-12-11T03:50:24.031Z,1005.27
2022-12-11T03:51:24.041Z,1005.25
2022-12-11T03:52:24.046Z,1005.27
2022-12-11T03:53:24.048Z,1005.24
2022-12-11T03:54:24.063Z,1005.27
2022-12-11T03:55:24.068Z,1005.23
2022-12-11T03:56:24.069Z,1005.26
2022-12-11T03:57:24.069Z,1005.28
2022-12-11T03:58:24.077Z,1005.23
2022-12-11T03:59:24.081Z,1005.22
2022-12-11T04:00:24.095Z,1005.18
2022-12-11T04:01:24.145Z,1005.22
2022-12-11T04:02:24.110Z,1005.20
2022-12-11T04:03:24.121Z,1005.22
2022-12-11T04:04:24.154Z,1005.21
2022-12-11T04:05:24.122Z,1005.18
2022-12-11T04:06:24.139Z,1005.20
2022-12-11T04:07:24.138Z,1005.18
2022-12-11T04:08:24.181Z,1005.16
2022-12-11T04:09:24.136Z,1005.20
2022-12-11T04:10:24.142Z,1005.22
2022-12-11T04:11:24.148Z,1005.16
2022-12-11T04:12:24.153Z,1005.20
2022-12-11T04:13:24.158Z,1005.19
2022-12-11T04:14:24.166Z,1005.21
2022-12-11T04:15:24.169Z,1005.24
2022-12-11T04:16:24.175Z,1005.19
2022-12-11T04:17:24.181Z,1005.20
2022-12-11T04:18:24.185Z,1005.21
2022-12-11T04:19:24.191Z,1005.20
2022-12-11T04:20:24.197Z,1005.22
2022-12-11T04:21:24.202Z,1005.21
2022-12-11T04:22:24.217Z,1005.24
2022-12-11T04:23:24.213Z,1005.25
2022-12-11T04:24:24.217Z,1005.26
2022-12-11T04:25:24.226Z,1005.23
2022-12-11T04:26:24.229Z,1005.21
2022-12-11T04:27:24.235Z,1005.20
2022-12-11T04:28:24.240Z,1005.18
2022-12-11T04:29:24.247Z,1005.16
2022-12-11T04:30:26.068Z,1005.14
2022-12-11T04:31:24.312Z,1005.12
2022-12-11T04:32:24.263Z,1005.11
2022-12-11T04:33:24.269Z,1005.11
2022-12-11T04:34:24.274Z,1005.10
2022-12-11T04:35:24.278Z,1005.05
2022-12-11T04:36:24.283Z,1005.02
2022-12-11T04:37:24.289Z,1005.02
2022-12-11T04:38:24.298Z,1005.08
2022-12-11T04:39:24.300Z,1004.97
2022-12-11T04:40:24.307Z,1005.05
2022-12-11T04:41:24.312Z,1005.05
2022-12-11T04:42:24.317Z,1005.08
2022-12-11T04:43:24.323Z,1005.06
2022-12-11T04:44:24.330Z,1005.02
2022-12-11T04:45:24.333Z,1005.04
2022-12-11T04:46:24.405Z,1005.03
2022-12-11T04:47:24.345Z,1005.04
2022-12-11T04:48:24.350Z,1005.05
2022-12-11T04:49:24.357Z,1005.01
2022-12-11T04:50:24.361Z,1004.99
2022-12-11T04:51:24.366Z,1004.97
2022-12-11T04:52:24.373Z,1004.99
2022-12-11T04:53:24.377Z,1005.00
2022-12-11T04:54:24.383Z,1004.99
2022-12-11T04:55:24.389Z,1005.02
2022-12-11T04:56:24.392Z,1005.00
2022-12-11T04:57:24.403Z,1005.01
2022-12-11T04:58:24.406Z,1005.02
2022-12-11T04:59:24.414Z,1005.04
2022-12-11T05:00:24.416Z,1005.00
2022-12-11T05:01:24.452Z,1005.00
2022-12-11T05:02:24.476Z,1005.02
2022-12-11T05:03:24.434Z,1004.95
2022-12-11T05:04:24.439Z,1005.00
2022-12-11T05:05:24.457Z,1005.00
2022-12-11T05:06:24.456Z,1004.98
2022-12-11T05:07:24.458Z,1005.00
2022-12-11T05:08:24.538Z,1004.98
2022-12-11T05:09:24.466Z,1004.95
2022-12-11T05:10:24.473Z,1004.98
2022-12-11T05:11:24.478Z,1005.00
2022-12-11T05:12:24.483Z,1004.99
2022-12-11T05:13:24.490Z,1004.96
2022-12-11T05:14:24.497Z,1004.98
2022-12-11T05:15:24.502Z,1004.94
2022-12-11T05:16:24.548Z,1004.93
2022-12-11T05:17:24.512Z,1004.89
2022-12-11T05:18:24.517Z,1004.94
2022-12-11T05:19:24.522Z,1004.94
2022-12-11T05:20:24.530Z,1004.96
2022-12-11T05:21:24.533Z,1004.97
2022-12-11T05:22:24.540Z,1004.93
2022-12-11T05:23:24.550Z,1004.94
2022-12-11T05:24:24.549Z,1004.86
2022-12-11T05:25:24.557Z,1004.88
2022-12-11T05:26:24.562Z,1004.87
2022-12-11T05:27:24.567Z,1004.93
2022-12-11T05:28:24.571Z,1004.92
2022-12-11T05:29:24.577Z,1004.90
2022-12-11T05:30:24.587Z,1004.88
2022-12-11T05:31:24.661Z,1004.84
2022-12-11T05:32:24.594Z,1004.81
2022-12-11T05:33:24.600Z,1004.80
2022-12-11T05:34:24.604Z,1004.85
2022-12-11T05:35:24.613Z,1004.86
2022-12-11T05:36:24.617Z,1004.88
2022-12-11T05:37:24.624Z,1004.88
2022-12-11T05:38:24.629Z,1004.87
2022-12-11T05:39:24.633Z,1004.88
2022-12-11T05:40:24.638Z,1004.87
2022-12-11T05:41:24.644Z,1004.84
2022-12-11T05:42:28.806Z,1004.84
2022-12-11T05:43:24.655Z,1004.80
2022-12-11T05:44:24.665Z,1004.81
2022-12-11T05:45:24.666Z,1004.81
2022-12-11T05:46:24.700Z,1004.83
2022-12-11T05:47:24.680Z,1004.86
2022-12-11T05:48:24.681Z,1004.87
2022-12-11T05:49:30.501Z,1004.85
2022-12-11T05:50:24.695Z,1004.79
2022-12-11T05:51:24.699Z,1004.81
2022-12-11T05:52:24.704Z,1004.77
2022-12-11T05:53:24.711Z,1004.78
2022-12-11T05:54:24.716Z,1004.79
2022-12-11T05:55:24.722Z,1004.81
2022-12-11T05:56:24.726Z,1004.85
2022-12-11T05:57:24.735Z,1004.86
2022-12-11T05:58:24.741Z,1004.75
2022-12-11T05:59:24.743Z,1004.72
2022-12-11T06:00:24.747Z,1004.74
2022-12-11T06:01:24.754Z,1004.72
2022-12-11T06:02:24.850Z,1004.71
2022-12-11T06:03:24.767Z,1004.74
2022-12-11T06:04:24.770Z,1004.74
2022-12-11T06:05:24.781Z,1004.77
2022-12-11T06:06:24.783Z,1004.82
2022-12-11T06:07:24.788Z,1004.79
2022-12-11T06:08:24.815Z,1004.74
2022-12-11T06:09:24.797Z,1004.74
2022-12-11T06:10:24.803Z,1004.77
2022-12-11T06:11:24.812Z,1004.76
2022-12-11T06:12:24.813Z,1004.77
2022-12-11T06:13:24.819Z,1004.81
2022-12-11T06:14:24.825Z,1004.77
2022-12-11T06:15:24.827Z,1004.79
2022-12-11T06:16:24.899Z,1004.80
2022-12-11T06:17:24.840Z,1004.76
2022-12-11T06:18:24.848Z,1004.71
2022-12-11T06:19:24.854Z,1004.72
2022-12-11T06:20:24.854Z,1004.76
2022-12-11T06:21:24.861Z,1004.71
2022-12-11T06:22:24.870Z,1004.72
2022-12-11T06:23:24.873Z,1004.75
2022-12-11T06:24:24.878Z,1004.72
2022-12-11T06:25:24.883Z,1004.72
2022-12-11T06:26:24.887Z,1004.73
2022-12-11T06:27:24.893Z,1004.68
2022-12-11T06:28:24.900Z,1004.71
2022-12-11T06:29:24.912Z,1004.71
2022-12-11T06:30:38.603Z,1004.77
2022-12-11T06:31:24.998Z,1004.74
2022-12-11T06:32:24.927Z,1004.75
2022-12-11T06:33:24.926Z,1004.78
2022-12-11T06:34:24.932Z,1004.77
2022-12-11T06:35:24.939Z,1004.76
2022-12-11T06:36:24.941Z,1004.74
2022-12-11T06:37:24.948Z,1004.79
2022-12-11T06:38:24.953Z,1004.82
2022-12-11T06:39:24.969Z,1004.79
2022-12-11T06:40:24.964Z,1004.76
2022-12-11T06:41:24.969Z,1004.78
2022-12-11T06:42:24.973Z,1004.77
2022-12-11T06:43:24.978Z,1004.84
2022-12-11T06:44:24.985Z,1004.77
2022-12-11T06:45:25.029Z,1004.79
2022-12-11T06:46:25.016Z,1004.80
2022-12-11T06:47:25.000Z,1004.79
2022-12-11T06:48:25.003Z,1004.83
2022-12-11T06:49:25.009Z,1004.84
2022-12-11T06:50:25.015Z,1004.79
2022-12-11T06:51:25.023Z,1004.85
2022-12-11T06:52:25.025Z,1004.86
2022-12-11T06:53:25.031Z,1004.92
2022-12-11T06:54:25.035Z,1004.90
2022-12-11T06:55:25.079Z,1004.88
2022-12-11T06:56:25.053Z,1004.97
2022-12-11T06:57:25.051Z,1004.87
2022-12-11T06:58:25.056Z,1004.91
2022-12-11T06:59:25.063Z,1004.93
2022-12-11T07:00:25.066Z,1004.92
2022-12-11T07:01:25.170Z,1005.03
2022-12-11T07:02:25.104Z,1004.91
2022-12-11T07:03:25.083Z,1004.88
2022-12-11T07:04:25.099Z,1004.95
2022-12-11T07:05:25.092Z,1004.96
2022-12-11T07:06:25.100Z,1004.98
2022-12-11T07:07:25.103Z,1004.95
2022-12-11T07:08:25.149Z,1004.99
2022-12-11T07:09:25.112Z,1005.03
2022-12-11T07:10:25.121Z,1004.98
2022-12-11T07:11:25.126Z,1004.99
2022-12-11T07:12:25.127Z,1004.90
2022-12-11T07:13:25.133Z,1004.93
2022-12-11T07:14:25.137Z,1004.90
2022-12-11T07:15:25.141Z,1004.85
2022-12-11T07:16:25.177Z,1004.88
2022-12-11T07:17:25.159Z,1004.90
2022-12-11T07:18:25.157Z,1004.87
2022-12-11T07:19:25.166Z,1004.87
2022-12-11T07:20:25.168Z,1004.88
2022-12-11T07:21:25.172Z,1004.94
2022-12-11T07:22:25.177Z,1004.96
2022-12-11T07:23:25.182Z,1004.94
2022-12-11T07:24:25.187Z,1004.94
2022-12-11T07:25:25.191Z,1004.94
2022-12-11T07:26:25.197Z,1004.94
2022-12-11T07:27:25.202Z,1004.96
2022-12-11T07:28:25.208Z,1004.95
2022-12-11T07:29:25.212Z,1005.00
2022-12-11T07:30:25.218Z,1004.99
2022-12-11T07:31:25.308Z,1004.94
2022-12-11T07:32:25.384Z,1005.00
2022-12-11T07:33:25.234Z,1004.97
2022-12-11T07:34:25.236Z,1004.98
2022-12-11T07:35:25.242Z,1004.96
2022-12-11T07:36:25.245Z,1004.96
2022-12-11T07:37:25.253Z,1005.01
2022-12-11T07:38:25.258Z,1004.95
2022-12-11T07:39:25.312Z,1005.01
2022-12-11T07:40:25.272Z,1004.99
2022-12-11T07:41:25.271Z,1005.01
2022-12-11T07:42:25.277Z,1005.04
2022-12-11T07:43:25.281Z,1005.04
2022-12-11T07:44:25.289Z,1005.04
2022-12-11T07:45:25.292Z,1004.98
2022-12-11T07:46:25.297Z,1005.05
2022-12-11T07:47:25.305Z,1005.06
2022-12-11T07:48:25.306Z,1005.04
2022-12-11T07:49:25.311Z,1005.02
2022-12-11T07:50:25.317Z,1004.97
2022-12-11T07:51:25.320Z,1004.99
2022-12-11T07:52:25.326Z,1005.02
2022-12-11T07:53:25.330Z,1005.00
2022-12-11T07:54:25.336Z,1005.01
2022-12-11T07:55:25.342Z,1005.03
2022-12-11T07:56:25.346Z,1005.05
2022-12-11T07:57:25.356Z,1005.08
2022-12-11T07:58:25.358Z,1005.06
2022-12-11T07:59:25.364Z,1005.05
2022-12-11T08:00:25.364Z,1005.10
2022-12-11T08:01:25.396Z,1005.14
2022-12-11T08:02:25.417Z,1005.13
2022-12-11T08:03:25.382Z,1005.18
2022-12-11T08:04:25.395Z,1005.09
2022-12-11T08:05:25.391Z,1005.15
2022-12-11T08:06:25.396Z,1005.06
2022-12-11T08:07:25.402Z,1005.06
2022-12-11T08:08:25.437Z,1005.01
2022-12-11T08:09:25.412Z,1005.03
2022-12-11T08:10:25.457Z,1005.03
2022-12-11T08:11:25.426Z,1005.08
2022-12-11T08:12:25.428Z,1005.08
2022-12-11T08:13:25.434Z,1005.10
2022-12-11T08:14:25.439Z,1005.13
2022-12-11T08:15:25.442Z,1005.13
2022-12-11T08:16:25.486Z,1005.11
2022-12-11T08:17:30.091Z,1005.09
2022-12-11T08:18:25.460Z,1005.14
2022-12-11T08:19:25.462Z,1005.15
2022-12-11T08:20:25.467Z,1005.12
2022-12-11T08:21:25.471Z,1005.13
2022-12-11T08:22:25.480Z,1005.12
2022-12-11T08:23:25.483Z,1005.12
2022-12-11T08:24:25.493Z,1005.09
2022-12-11T08:25:25.490Z,1005.13
2022-12-11T08:26:25.500Z,1005.09
2022-12-11T08:27:25.502Z,1005.13
2022-12-11T08:28:27.235Z,1005.15
2022-12-11T08:29:25.511Z,1005.17
2022-12-11T08:30:25.517Z,1005.18
2022-12-11T08:31:25.521Z,1005.20
2022-12-11T08:32:25.537Z,1005.20
2022-12-11T08:33:25.531Z,1005.23
2022-12-11T08:34:25.539Z,1005.18
2022-12-11T08:35:25.543Z,1005.18
2022-12-11T08:36:25.552Z,1005.20
2022-12-11T08:37:25.553Z,1005.15
2022-12-11T08:38:25.810Z,1005.16
2022-12-11T08:39:25.566Z,1005.15
2022-12-11T08:40:25.568Z,1005.20
2022-12-11T08:41:25.573Z,1005.16
2022-12-11T08:42:25.578Z,1005.14
2022-12-11T08:43:25.587Z,1005.21
2022-12-11T08:44:25.591Z,1005.14
2022-12-11T08:45:25.596Z,1005.22
2022-12-11T08:46:25.683Z,1005.25
2022-12-11T08:47:25.613Z,1005.19
2022-12-11T08:48:25.613Z,1005.20
2022-12-11T08:49:27.589Z,1005.17
2022-12-11T08:50:25.624Z,1005.21
2022-12-11T08:51:25.629Z,1005.18
2022-12-11T08:52:25.636Z,1005.23
2022-12-11T08:53:25.654Z,1005.23
2022-12-11T08:54:25.642Z,1005.24
2022-12-11T08:55:25.653Z,1005.26
2022-12-11T08:56:25.657Z,1005.19
2022-12-11T08:57:25.661Z,1005.23
2022-12-11T08:58:25.667Z,1005.19
2022-12-11T08:59:25.688Z,1005.18
2022-12-11T09:00:25.677Z,1005.10
2022-12-11T09:01:25.761Z,1005.14
2022-12-11T09:02:25.714Z,1005.15
2022-12-11T09:03:25.695Z,1005.16
2022-12-11T09:04:25.700Z,1005.19
2022-12-11T09:05:25.706Z,1005.16
2022-12-11T09:06:25.714Z,1005.15
2022-12-11T09:07:25.718Z,1005.17
2022-12-11T09:08:25.843Z,1005.16
2022-12-11T09:09:25.729Z,1005.15
2022-12-11T09:10:25.737Z,1005.18
2022-12-11T09:11:25.759Z,1005.19
2022-12-11T09:12:25.746Z,1005.22
2022-12-11T09:13:25.752Z,1005.25
2022-12-11T09:14:25.757Z,1005.27
2022-12-11T09:15:25.766Z,1005.21
2022-12-11T09:16:25.769Z,1005.22
2022-12-11T09:17:25.772Z,1005.19
2022-12-11T09:18:25.780Z,1005.25
2022-12-11T09:19:30.655Z,1005.23
2022-12-11T09:20:25.793Z,1005.26
2022-12-11T09:21:25.797Z,1005.25
2022-12-11T09:22:25.804Z,1005.25
2022-12-11T09:23:25.808Z,1005.30
2022-12-11T09:24:25.815Z,1005.26
2022-12-11T09:25:25.838Z,1005.28
2022-12-11T09:26:25.852Z,1005.28
2022-12-11T09:27:25.836Z,1005.22
2022-12-11T09:28:25.853Z,1005.23
2022-12-11T09:29:25.848Z,1005.22
2022-12-11T09:30:25.851Z,1005.21
2022-12-11T09:31:25.856Z,1005.18
2022-12-11T09:32:25.863Z,1005.16
2022-12-11T09:33:25.868Z,1005.19
2022-12-11T09:34:29.126Z,1005.21
2022-12-11T09:35:25.880Z,1005.12
2022-12-11T09:36:25.895Z,1005.14
2022-12-11T09:37:25.902Z,1005.18
2022-12-11T09:38:25.905Z,1005.20
2022-12-11T09:39:25.901Z,1005.23
2022-12-11T09:40:25.905Z,1005.19
2022-12-11T09:41:25.917Z,1005.21
2022-12-11T09:42:25.916Z,1005.20
2022-12-11T09:43:25.924Z,1005.17
2022-12-11T09:44:25.928Z,1005.15
2022-12-11T09:45:25.936Z,1005.10
2022-12-11T09:46:27.644Z,1005.07
2022-12-11T09:47:25.942Z,1005.04
2022-12-11T09:48:25.949Z,1005.00
2022-12-11T09:49:25.958Z,1004.98
2022-12-11T09:50:25.965Z,1005.02
2022-12-11T09:51:25.973Z,1005.02
2022-12-11T09:52:25.974Z,1005.06
2022-12-11T09:53:28.695Z,1005.02
2022-12-11T09:54:25.983Z,1004.97
2022-12-11T09:55:25.988Z,1004.98
2022-12-11T09:56:25.993Z,1004.97
2022-12-11T09:57:25.999Z,1005.01
2022-12-11T09:58:26.009Z,1004.97
2022-12-11T09:59:26.019Z,1004.96
2022-12-11T10:00:26.016Z,1004.95
2022-12-11T10:01:26.055Z,1004.94
2022-12-11T10:02:26.062Z,1004.95
2022-12-11T10:03:26.036Z,1004.96
2022-12-11T10:04:26.042Z,1004.91
2022-12-11T10:05:26.045Z,1004.96
2022-12-11T10:06:26.055Z,1004.96
2022-12-11T10:07:26.060Z,1004.93
2022-12-11T10:08:26.088Z,1004.94
2022-12-11T10:09:26.073Z,1004.91
2022-12-11T10:10:26.074Z,1004.91
2022-12-11T10:11:26.086Z,1004.93
2022-12-11T10:12:26.085Z,1004.94
2022-12-11T10:13:26.096Z,1004.91
2022-12-11T10:14:26.112Z,1004.89
2022-12-11T10:15:26.110Z,1004.89
2022-12-11T10:16:26.108Z,1004.86
2022-12-11T10:17:26.122Z,1004.84
2022-12-11T10:18:26.123Z,1004.84
2022-12-11T10:19:26.129Z,1004.81
2022-12-11T10:20:26.132Z,1004.80
2022-12-11T10:21:26.138Z,1004.79
2022-12-11T10:22:26.145Z,1004.76
2022-12-11T10:23:26.153Z,1004.74
2022-12-11T10:24:59.394Z,1004.79
2022-12-11T10:25:26.428Z,1004.75
2022-12-11T10:26:26.172Z,1004.73
2022-12-11T10:27:26.173Z,1004.71
2022-12-11T10:28:26.183Z,1004.66
2022-12-11T10:29:26.186Z,1004.62
2022-12-11T10:30:28.369Z,1004.64
2022-12-11T10:31:26.218Z,1004.58
2022-12-11T10:32:26.203Z,1004.63
2022-12-11T10:33:26.214Z,1004.60
2022-12-11T10:34:26.216Z,1004.63
2022-12-11T10:35:26.224Z,1004.64
2022-12-11T10:36:26.226Z,1004.62
2022-12-11T10:37:26.232Z,1004.58
2022-12-11T10:38:26.239Z,1004.56
2022-12-11T10:39:26.244Z,1004.59
2022-12-11T10:40:26.247Z,1004.64
2022-12-11T10:41:26.261Z,1004.58
2022-12-11T10:42:26.262Z,1004.59
2022-12-11T10:43:26.268Z,1004.58
2022-12-11T10:44:26.274Z,1004.58
2022-12-11T10:45:26.280Z,1004.57
2022-12-11T10:46:26.376Z,1004.60
2022-12-11T10:47:26.290Z,1004.58
2022-12-11T10:48:26.296Z,1004.56
2022-12-11T10:49:26.307Z,1004.59
2022-12-11T10:50:26.309Z,1004.57
2022-12-11T10:51:26.315Z,1004.56
2022-12-11T10:52:26.320Z,1004.55
2022-12-11T10:53:26.328Z,1004.56
2022-12-11T10:54:26.333Z,1004.53
2022-12-11T10:55:26.339Z,1004.55
2022-12-11T10:56:26.341Z,1004.55
2022-12-11T10:57:26.347Z,1004.62
2022-12-11T10:58:26.354Z,1004.55
2022-12-11T10:59:26.361Z,1004.55
2022-12-11T11:00:26.366Z,1004.55
2022-12-11T11:01:26.411Z,1004.54
2022-12-11T11:02:26.440Z,1004.53
2022-12-11T11:03:26.385Z,1004.54
2022-12-11T11:04:26.395Z,1004.53
2022-12-11T11:05:26.399Z,1004.52
2022-12-11T11:06:26.408Z,1004.52
2022-12-11T11:07:26.415Z,1004.52
2022-12-11T11:08:26.462Z,1004.54
2022-12-11T11:09:26.421Z,1004.54
2022-12-11T11:10:26.427Z,1004.51
2022-12-11T11:11:26.432Z,1004.52
2022-12-11T11:12:26.443Z,1004.45
2022-12-11T11:13:26.445Z,1004.47
2022-12-11T11:14:26.449Z,1004.48
2022-12-11T11:15:26.457Z,1004.42
2022-12-11T11:16:26.510Z,1004.47
2022-12-11T11:17:28.502Z,1004.44
2022-12-11T11:18:26.472Z,1004.45
2022-12-11T11:19:26.477Z,1004.45
2022-12-11T11:20:26.490Z,1004.42
2022-12-11T11:21:26.488Z,1004.42
2022-12-11T11:22:26.495Z,1004.43
2022-12-11T11:23:26.503Z,1004.40
2022-12-11T11:24:26.511Z,1004.39
2022-12-11T11:25:26.513Z,1004.39
2022-12-11T11:26:38.397Z,1004.32
2022-12-11T11:27:26.527Z,1004.35
2022-12-11T11:28:26.531Z,1004.32
2022-12-11T11:29:26.539Z,1004.32
2022-12-11T11:30:26.544Z,1004.29
2022-12-11T11:31:26.613Z,1004.25
2022-12-11T11:32:26.556Z,1004.23
2022-12-11T11:33:26.564Z,1004.26
2022-12-11T11:34:26.572Z,1004.22
2022-12-11T11:35:26.592Z,1004.18
2022-12-11T11:36:26.584Z,1004.23
2022-12-11T11:37:26.589Z,1004.18
2022-12-11T11:38:26.594Z,1004.15
2022-12-11T11:39:26.604Z,1004.16
2022-12-11T11:40:26.612Z,1004.12
2022-12-11T11:41:26.614Z,1004.17
2022-12-11T11:42:26.620Z,1004.20
2022-12-11T11:43:26.628Z,1004.19
2022-12-11T11:44:26.633Z,1004.14
2022-12-11T11:45:26.641Z,1004.15
2022-12-11T11:46:26.704Z,1004.11
2022-12-11T11:47:26.654Z,1004.09
2022-12-11T11:48:26.660Z,1004.11
2022-12-11T11:49:26.664Z,1004.10
2022-12-11T11:50:26.676Z,1004.11
2022-12-11T11:51:26.680Z,1004.10
2022-12-11T11:52:26.685Z,1004.08
2022-12-11T11:53:26.693Z,1004.08
2022-12-11T11:54:26.701Z,1004.09
2022-12-11T11:55:26.707Z,1004.03
2022-12-11T11:56:26.711Z,1004.05
2022-12-11T11:57:26.718Z,1004.03
2022-12-11T11:58:26.725Z,1004.00
2022-12-11T11:59:26.741Z,1004.04
2022-12-11T12:00:30.325Z,1004.04
2022-12-11T12:01:26.745Z,1004.04
2022-12-11T12:02:26.805Z,1004.06
2022-12-11T12:03:26.761Z,1004.02
2022-12-11T12:04:26.763Z,1004.02
2022-12-11T12:05:26.771Z,1004.00